sensor_id;sensor_type;location;lat;lon;timestamp;pressure;altitude;pressure_sealevel;temperature;humidity
3917;BME280;1973;50.518;7.318;2023-09-18T00:00:19;100025.72;;;20.68;100.00
3917;BME280;1973;50.518;7.318;2023-09-18T00:02:48;100035.25;;;20.67;100.00
3917;BME280;1973;50.518;7.318;2023-09-18T00:05:14;100024.06;;;20.67;100.00
3917;BME280;1973;50.518;7.318;2023-09-18T00:07:43;100017.41;;;20.63;100.00
3917;BME280;1973;50.518;7.318;2023-09-18T00:10:13;100007.03;;;20.64;100.00
3917;BME280;1973;50.518;7.318;2023-09-18T00:12:40;99999.25;;;20.61;100.00
3917;BME280;1973;50.518;7.318;2023-09-18T00:15:07;99996.75;;;20.59;100.00
3917;BME280;1973;50.518;7.318;2023-09-18T00:17:35;99983.94;;;20.58;100.00
3917;BME280;1973;50.518;7.318;2023-09-18T00:20:03;99992.06;;;20.55;100.00
3917;BME280;1973;50.518;7.318;2023-09-18T00:22:33;99987.91;;;20.52;100.00
3917;BME280;1973;50.518;7.318;2023-09-18T00:25:00;99980.63;;;20.51;100.00
3917;BME280;1973;50.518;7.318;2023-09-18T00:27:28;99992.38;;;20.53;100.00
3917;BME280;1973;50.518;7.318;2023-09-18T00:29:55;99984.81;;;20.54;100.00
3917;BME280;1973;50.518;7.318;2023-09-18T00:32:21;99974.75;;;20.53;100.00
3917;BME280;1973;50.518;7.318;2023-09-18T00:34:48;99978.38;;;20.53;100.00
3917;BME280;1973;50.518;7.318;2023-09-18T00:37:15;99975.03;;;20.51;100.00
3917;BME280;1973;50.518;7.318;2023-09-18T00:39:43;99974.81;;;20.48;100.00
3917;BME280;1973;50.518;7.318;2023-09-18T00:42:10;99974.59;;;20.44;100.00
3917;BME280;1973;50.518;7.318;2023-09-18T00:44:40;99971.28;;;20.42;100.00
3917;BME280;1973;50.518;7.318;2023-09-18T00:47:10;99967.41;;;20.38;100.00
3917;BME280;1973;50.518;7.318;2023-09-18T00:49:39;99966.91;;;20.36;100.00
3917;BME280;1973;50.518;7.318;2023-09-18T00:52:07;99957.44;;;20.32;100.00
3917;BME280;1973;50.518;7.318;2023-09-18T00:54:37;99955.22;;;20.29;100.00
3917;BME280;1973;50.518;7.318;2023-09-18T00:57:05;99951.88;;;20.27;100.00
3917;BME280;1973;50.518;7.318;2023-09-18T00:59:32;99954.16;;;20.25;100.00
3917;BME280;1973;50.518;7.318;2023-09-18T01:02:02;99954.72;;;20.22;100.00
3917;BME280;1973;50.518;7.318;2023-09-18T01:04:30;99946.94;;;20.19;100.00
3917;BME280;1973;50.518;7.318;2023-09-18T01:07:02;99957.63;;;20.17;100.00
3917;BME280;1973;50.518;7.318;2023-09-18T01:09:32;99956.78;;;20.16;100.00
3917;BME280;1973;50.518;7.318;2023-09-18T01:15:00;99967.97;;;20.16;100.00
3917;BME280;1973;50.518;7.318;2023-09-18T01:17:35;99962.06;;;20.18;100.00
3917;BME280;1973;50.518;7.318;2023-09-18T01:20:11;99969.03;;;20.20;100.00
3917;BME280;1973;50.518;7.318;2023-09-18T01:22:38;99957.00;;;20.20;100.00
3917;BME280;1973;50.518;7.318;2023-09-18T01:25:05;99963.72;;;20.19;100.00
3917;BME280;1973;50.518;7.318;2023-09-18T01:27:33;99964.84;;;20.18;100.00
3917;BME280;1973;50.518;7.318;2023-09-18T01:30:00;99953.66;;;20.18;100.00
3917;BME280;1973;50.518;7.318;2023-09-18T01:32:29;99938.56;;;20.19;100.00
3917;BME280;1973;50.518;7.318;2023-09-18T01:35:00;99942.72;;;20.21;100.00
3917;BME280;1973;50.518;7.318;2023-09-18T01:37:29;99953.91;;;20.21;100.00
3917;BME280;1973;50.518;7.318;2023-09-18T01:39:56;99963.66;;;20.24;100.00
3917;BME280;1973;50.518;7.318;2023-09-18T01:42:29;99979.84;;;20.27;100.00
3917;BME280;1973;50.518;7.318;2023-09-18T01:44:55;100001.03;;;20.33;100.00
3917;BME280;1973;50.518;7.318;2023-09-18T01:47:22;100011.50;;;20.46;100.00
3917;BME280;1973;50.518;7.318;2023-09-18T01:49:50;100021.94;;;20.59;100.00
3917;BME280;1973;50.518;7.318;2023-09-18T01:52:16;100007.81;;;20.69;100.00
3917;BME280;1973;50.518;7.318;2023-09-18T01:54:43;99984.59;;;20.87;100.00
3917;BME280;1973;50.518;7.318;2023-09-18T01:57:09;100008.94;;;21.06;100.00
3917;BME280;1973;50.518;7.318;2023-09-18T01:59:36;99999.53;;;21.34;100.00
3917;BME280;1973;50.518;7.318;2023-09-18T02:02:05;100013.91;;;21.60;100.00
3917;BME280;1973;50.518;7.318;2023-09-18T02:04:34;100001.28;;;21.76;100.00
3917;BME280;1973;50.518;7.318;2023-09-18T02:07:21;99996.13;;;21.83;100.00
3917;BME280;1973;50.518;7.318;2023-09-18T02:09:47;99989.88;;;21.86;100.00
3917;BME280;1973;50.518;7.318;2023-09-18T02:12:14;99961.00;;;21.85;100.00
3917;BME280;1973;50.518;7.318;2023-09-18T02:14:44;99940.47;;;21.90;100.00
3917;BME280;1973;50.518;7.318;2023-09-18T02:17:11;99925.72;;;21.84;100.00
3917;BME280;1973;50.518;7.318;2023-09-18T02:19:38;99921.38;;;21.78;100.00
3917;BME280;1973;50.518;7.318;2023-09-18T02:22:05;99915.00;;;21.73;100.00
3917;BME280;1973;50.518;7.318;2023-09-18T02:24:31;99890.75;;;21.68;100.00
3917;BME280;1973;50.518;7.318;2023-09-18T02:26:58;99889.19;;;21.62;100.00
3917;BME280;1973;50.518;7.318;2023-09-18T02:29:24;99864.59;;;21.59;100.00
3917;BME280;1973;50.518;7.318;2023-09-18T02:31:51;99844.78;;;21.56;100.00
3917;BME280;1973;50.518;7.318;2023-09-18T02:34:18;99831.19;;;21.49;100.00
3917;BME280;1973;50.518;7.318;2023-09-18T02:36:45;99824.03;;;21.43;100.00
3917;BME280;1973;50.518;7.318;2023-09-18T02:39:12;99829.75;;;21.38;100.00
3917;BME280;1973;50.518;7.318;2023-09-18T02:41:39;99833.16;;;21.35;100.00
3917;BME280;1973;50.518;7.318;2023-09-18T02:44:05;99845.00;;;21.32;100.00
3917;BME280;1973;50.518;7.318;2023-09-18T02:46:32;99839.47;;;21.27;100.00
3917;BME280;1973;50.518;7.318;2023-09-18T02:48:59;99837.81;;;21.26;100.00
3917;BME280;1973;50.518;7.318;2023-09-18T02:51:26;99857.19;;;21.22;100.00
3917;BME280;1973;50.518;7.318;2023-09-18T02:53:52;99874.41;;;21.16;100.00
3917;BME280;1973;50.518;7.318;2023-09-18T02:56:19;99907.53;;;21.09;100.00
3917;BME280;1973;50.518;7.318;2023-09-18T02:58:45;99906.06;;;20.98;100.00
3917;BME280;1973;50.518;7.318;2023-09-18T03:01:12;99893.81;;;20.94;100.00
3917;BME280;1973;50.518;7.318;2023-09-18T03:03:39;99894.94;;;20.93;100.00
3917;BME280;1973;50.518;7.318;2023-09-18T03:06:08;99898.34;;;20.89;100.00
3917;BME280;1973;50.518;7.318;2023-09-18T03:08:35;99902.28;;;20.88;100.00
3917;BME280;1973;50.518;7.318;2023-09-18T03:11:01;99896.88;;;20.78;100.00
3917;BME280;1973;50.518;7.318;2023-09-18T03:13:30;99887.34;;;20.79;100.00
3917;BME280;1973;50.518;7.318;2023-09-18T03:15:57;99894.38;;;20.77;100.00
3917;BME280;1973;50.518;7.318;2023-09-18T03:18:24;99900.56;;;20.74;100.00
3917;BME280;1973;50.518;7.318;2023-09-18T03:20:50;99909.50;;;20.76;100.00
3917;BME280;1973;50.518;7.318;2023-09-18T03:23:17;99910.34;;;20.76;100.00
3917;BME280;1973;50.518;7.318;2023-09-18T03:25:44;99899.16;;;20.76;100.00
3917;BME280;1973;50.518;7.318;2023-09-18T03:28:17;99903.31;;;20.79;100.00
3917;BME280;1973;50.518;7.318;2023-09-18T03:30:44;99887.34;;;20.79;100.00
3917;BME280;1973;50.518;7.318;2023-09-18T03:33:11;99887.84;;;20.81;100.00
3917;BME280;1973;50.518;7.318;2023-09-18T03:35:48;99857.91;;;20.82;100.00
3917;BME280;1973;50.518;7.318;2023-09-18T03:38:16;99861.53;;;20.82;100.00
3917;BME280;1973;50.518;7.318;2023-09-18T03:40:42;99855.41;;;20.80;100.00
3917;BME280;1973;50.518;7.318;2023-09-18T03:43:10;99859.38;;;20.79;100.00
3917;BME280;1973;50.518;7.318;2023-09-18T03:45:38;99841.97;;;20.82;100.00
3917;BME280;1973;50.518;7.318;2023-09-18T03:48:09;99850.06;;;20.84;100.00
3917;BME280;1973;50.518;7.318;2023-09-18T03:50:36;99854.81;;;20.83;100.00
3917;BME280;1973;50.518;7.318;2023-09-18T03:53:02;99856.47;;;20.84;100.00
3917;BME280;1973;50.518;7.318;2023-09-18T03:55:29;99859.25;;;20.84;100.00
3917;BME280;1973;50.518;7.318;2023-09-18T03:57:57;99849.72;;;20.85;100.00
3917;BME280;1973;50.518;7.318;2023-09-18T04:00:23;99855.88;;;20.87;100.00
3917;BME280;1973;50.518;7.318;2023-09-18T04:02:50;99860.31;;;20.88;100.00
3917;BME280;1973;50.518;7.318;2023-09-18T04:05:17;99853.28;;;20.91;100.00
3917;BME280;1973;50.518;7.318;2023-09-18T04:10:14;99839.50;;;20.95;100.00
3917;BME280;1973;50.518;7.318;2023-09-18T04:12:50;99831.00;;;21.00;100.00
3917;BME280;1973;50.518;7.318;2023-09-18T04:15:18;99831.84;;;21.00;100.00
3917;BME280;1973;50.518;7.318;2023-09-18T04:17:45;99844.69;;;21.01;100.00
3917;BME280;1973;50.518;7.318;2023-09-18T04:20:12;99846.16;;;20.99;100.00
3917;BME280;1973;50.518;7.318;2023-09-18T04:22:47;99850.59;;;21.00;100.00
3917;BME280;1973;50.518;7.318;2023-09-18T04:25:17;99865.81;;;20.94;100.00
3917;BME280;1973;50.518;7.318;2023-09-18T04:27:46;99845.47;;;20.88;100.00
3917;BME280;1973;50.518;7.318;2023-09-18T04:30:12;99830.56;;;20.93;100.00
3917;BME280;1973;50.518;7.318;2023-09-18T04:32:40;99827.47;;;20.94;100.00
3917;BME280;1973;50.518;7.318;2023-09-18T04:35:08;99818.75;;;20.96;100.00
3917;BME280;1973;50.518;7.318;2023-09-18T04:37:36;99813.16;;;20.96;100.00
3917;BME280;1973;50.518;7.318;2023-09-18T04:40:05;99790.19;;;20.99;100.00
3917;BME280;1973;50.518;7.318;2023-09-18T04:42:36;99791.31;;;20.98;100.00
3917;BME280;1973;50.518;7.318;2023-09-18T04:45:04;99787.38;;;20.99;100.00
3917;BME280;1973;50.518;7.318;2023-09-18T04:47:31;99782.28;;;21.01;100.00
3917;BME280;1973;50.518;7.318;2023-09-18T04:49:58;99797.63;;;21.03;100.00
3917;BME280;1973;50.518;7.318;2023-09-18T04:52:25;99782.78;;;21.03;100.00
3917;BME280;1973;50.518;7.318;2023-09-18T04:54:52;99803.22;;;21.03;100.00
3917;BME280;1973;50.518;7.318;2023-09-18T04:57:21;99804.97;;;20.99;100.00
3917;BME280;1973;50.518;7.318;2023-09-18T04:59:49;99796.56;;;20.99;100.00
3917;BME280;1973;50.518;7.318;2023-09-18T05:02:31;99784.59;;;20.99;100.00
3917;BME280;1973;50.518;7.318;2023-09-18T05:04:57;99801.88;;;21.01;100.00
3917;BME280;1973;50.518;7.318;2023-09-18T05:07:24;99800.75;;;21.02;100.00
3917;BME280;1973;50.518;7.318;2023-09-18T05:09:51;99829.38;;;20.99;100.00
3917;BME280;1973;50.518;7.318;2023-09-18T05:12:18;99826.66;;;20.94;100.00
3917;BME280;1973;50.518;7.318;2023-09-18T05:14:44;99830.78;;;20.96;100.00
3917;BME280;1973;50.518;7.318;2023-09-18T05:17:16;99826.56;;;20.99;100.00
3917;BME280;1973;50.518;7.318;2023-09-18T05:19:43;99829.94;;;20.96;100.00
3917;BME280;1973;50.518;7.318;2023-09-18T05:22:11;99836.09;;;20.98;100.00
3917;BME280;1973;50.518;7.318;2023-09-18T05:24:38;99834.97;;;20.99;100.00
3917;BME280;1973;50.518;7.318;2023-09-18T05:27:05;99824.91;;;20.98;100.00
3917;BME280;1973;50.518;7.318;2023-09-18T05:29:34;99837.22;;;20.97;100.00
3917;BME280;1973;50.518;7.318;2023-09-18T05:32:04;99839.50;;;20.95;100.00
3917;BME280;1973;50.518;7.318;2023-09-18T05:34:31;99823.22;;;20.97;100.00
3917;BME280;1973;50.518;7.318;2023-09-18T05:36:58;99832.75;;;20.96;100.00
3917;BME280;1973;50.518;7.318;2023-09-18T05:39:25;99829.94;;;20.96;100.00
3917;BME280;1973;50.518;7.318;2023-09-18T05:41:52;99836.72;;;20.95;100.00
3917;BME280;1973;50.518;7.318;2023-09-18T05:44:18;99838.56;;;20.99;100.00
3917;BME280;1973;50.518;7.318;2023-09-18T05:46:45;99846.44;;;20.97;100.00
3917;BME280;1973;50.518;7.318;2023-09-18T05:49:12;99868.53;;;20.99;100.00
3917;BME280;1973;50.518;7.318;2023-09-18T05:51:39;99875.91;;;20.95;100.00
3917;BME280;1973;50.518;7.318;2023-09-18T05:54:05;99880.88;;;20.98;100.00
3917;BME280;1973;50.518;7.318;2023-09-18T05:56:33;99885.63;;;20.97;100.00
3917;BME280;1973;50.518;7.318;2023-09-18T05:58:59;99893.19;;;20.97;100.00
3917;BME280;1973;50.518;7.318;2023-09-18T06:01:26;99883.06;;;21.01;100.00
3917;BME280;1973;50.518;7.318;2023-09-18T06:03:52;99871.03;;;21.00;100.00
3917;BME280;1973;50.518;7.318;2023-09-18T06:06:22;99867.31;;;21.05;100.00
3917;BME280;1973;50.518;7.318;2023-09-18T06:08:48;99854.44;;;21.04;100.00
3917;BME280;1973;50.518;7.318;2023-09-18T06:11:15;99869.47;;;21.08;100.00
3917;BME280;1973;50.518;7.318;2023-09-18T06:13:42;99885.97;;;21.09;100.00
3917;BME280;1973;50.518;7.318;2023-09-18T06:16:08;99877.28;;;21.11;100.00
3917;BME280;1973;50.518;7.318;2023-09-18T06:18:35;99881.13;;;21.15;100.00
3917;BME280;1973;50.518;7.318;2023-09-18T06:21:04;99874.91;;;21.18;100.00
3917;BME280;1973;50.518;7.318;2023-09-18T06:23:31;99855.84;;;21.20;100.00
3917;BME280;1973;50.518;7.318;2023-09-18T06:25:59;99866.94;;;21.25;100.00
3917;BME280;1973;50.518;7.318;2023-09-18T06:28:25;99870.06;;;21.23;100.00
3917;BME280;1973;50.518;7.318;2023-09-18T06:30:52;99852.34;;;21.28;100.00
3917;BME280;1973;50.518;7.318;2023-09-18T06:33:20;99864.06;;;21.30;100.00
3917;BME280;1973;50.518;7.318;2023-09-18T06:35:47;99871.53;;;21.34;100.00
3917;BME280;1973;50.518;7.318;2023-09-18T06:38:15;99867.19;;;21.42;100.00
3917;BME280;1973;50.518;7.318;2023-09-18T06:40:42;99861.59;;;21.42;100.00
3917;BME280;1973;50.518;7.318;2023-09-18T06:43:08;99873.00;;;21.46;100.00
3917;BME280;1973;50.518;7.318;2023-09-18T06:45:35;99878.59;;;21.46;100.00
3917;BME280;1973;50.518;7.318;2023-09-18T06:48:04;99893.44;;;21.46;100.00
3917;BME280;1973;50.518;7.318;2023-09-18T06:50:31;99883.78;;;21.52;100.00
3917;BME280;1973;50.518;7.318;2023-09-18T06:52:58;99889.28;;;21.57;100.00
3917;BME280;1973;50.518;7.318;2023-09-18T06:55:24;99900.19;;;21.59;100.00
3917;BME280;1973;50.518;7.318;2023-09-18T06:57:51;99907.03;;;21.66;100.00
3917;BME280;1973;50.518;7.318;2023-09-18T07:00:18;99922.28;;;21.60;100.00
3917;BME280;1973;50.518;7.318;2023-09-18T07:02:47;99918.03;;;21.63;100.00
3917;BME280;1973;50.518;7.318;2023-09-18T07:05:16;99932.78;;;21.68;100.00
3917;BME280;1973;50.518;7.318;2023-09-18T07:07:43;99922.63;;;21.72;100.00
3917;BME280;1973;50.518;7.318;2023-09-18T07:10:10;99919.81;;;21.72;100.00
3917;BME280;1973;50.518;7.318;2023-09-18T07:12:36;99920.94;;;21.71;100.00
3917;BME280;1973;50.518;7.318;2023-09-18T07:15:03;99926.13;;;21.64;100.00
3917;BME280;1973;50.518;7.318;2023-09-18T07:17:32;99916.91;;;21.64;100.00
3917;BME280;1973;50.518;7.318;2023-09-18T07:19:59;99900.78;;;21.69;100.00
3917;BME280;1973;50.518;7.318;2023-09-18T07:22:26;99918.06;;;21.76;100.00
3917;BME280;1973;50.518;7.318;2023-09-18T07:24:56;99928.81;;;21.69;100.00
3917;BME280;1973;50.518;7.318;2023-09-18T07:27:23;99926.63;;;21.66;100.00
3917;BME280;1973;50.518;7.318;2023-09-18T07:29:49;99934.22;;;21.66;100.00
3917;BME280;1973;50.518;7.318;2023-09-18T07:32:16;99923.84;;;21.66;100.00
3917;BME280;1973;50.518;7.318;2023-09-18T07:35:02;99934.41;;;21.69;100.00
3917;BME280;1973;50.518;7.318;2023-09-18T07:37:31;99936.63;;;21.72;100.00
3917;BME280;1973;50.518;7.318;2023-09-18T07:39:57;99928.53;;;21.71;100.00
3917;BME280;1973;50.518;7.318;2023-09-18T07:42:25;99942.44;;;21.76;100.00
3917;BME280;1973;50.518;7.318;2023-09-18T07:44:52;99945.63;;;21.69;100.00
3917;BME280;1973;50.518;7.318;2023-09-18T07:47:18;99957.59;;;21.75;100.00
3917;BME280;1973;50.518;7.318;2023-09-18T07:49:45;99940.06;;;21.83;100.00
3917;BME280;1973;50.518;7.318;2023-09-18T07:52:12;99947.09;;;21.80;100.00
3917;BME280;1973;50.518;7.318;2023-09-18T07:54:38;99966.72;;;21.80;100.00
3917;BME280;1973;50.518;7.318;2023-09-18T07:57:05;99965.28;;;21.83;100.00
3917;BME280;1973;50.518;7.318;2023-09-18T07:59:36;99975.31;;;21.84;100.00
3917;BME280;1973;50.518;7.318;2023-09-18T08:02:03;99995.91;;;21.79;100.00
3917;BME280;1973;50.518;7.318;2023-09-18T08:04:31;99991.72;;;21.77;100.00
3917;BME280;1973;50.518;7.318;2023-09-18T08:06:58;99978.75;;;21.81;100.00
3917;BME280;1973;50.518;7.318;2023-09-18T08:09:26;99984.91;;;21.83;100.00
3917;BME280;1973;50.518;7.318;2023-09-18T08:11:55;99976.38;;;21.88;100.00
3917;BME280;1973;50.518;7.318;2023-09-18T08:14:22;99981.75;;;21.84;100.00
3917;BME280;1973;50.518;7.318;2023-09-18T08:16:56;99974.97;;;21.91;100.00
3917;BME280;1973;50.518;7.318;2023-09-18T08:19:23;99967.91;;;21.93;100.00
3917;BME280;1973;50.518;7.318;2023-09-18T08:21:50;99974.84;;;21.96;100.00
3917;BME280;1973;50.518;7.318;2023-09-18T08:24:18;99985.75;;;21.97;100.00
3917;BME280;1973;50.518;7.318;2023-09-18T08:26:44;99999.63;;;21.89;100.00
3917;BME280;1973;50.518;7.318;2023-09-18T08:29:11;99993.44;;;21.92;100.00
3917;BME280;1973;50.518;7.318;2023-09-18T08:31:37;99981.63;;;21.95;100.00
3917;BME280;1973;50.518;7.318;2023-09-18T08:34:04;100000.91;;;21.96;100.00
3917;BME280;1973;50.518;7.318;2023-09-18T08:36:31;100028.13;;;21.96;100.00
3917;BME280;1973;50.518;7.318;2023-09-18T08:38:58;100022.63;;;21.91;100.00
3917;BME280;1973;50.518;7.318;2023-09-18T08:41:27;100013.66;;;21.89;100.00
3917;BME280;1973;50.518;7.318;2023-09-18T08:44:00;100013.88;;;21.92;100.00
3917;BME280;1973;50.518;7.318;2023-09-18T08:46:27;100024.19;;;21.97;100.00
3917;BME280;1973;50.518;7.318;2023-09-18T08:48:57;100020.88;;;21.95;100.00
3917;BME280;1973;50.518;7.318;2023-09-18T08:51:25;100008.38;;;21.87;100.00
3917;BME280;1973;50.518;7.318;2023-09-18T08:53:53;100011.28;;;21.96;100.00
3917;BME280;1973;50.518;7.318;2023-09-18T08:56:21;100009.44;;;22.05;100.00
3917;BME280;1973;50.518;7.318;2023-09-18T08:58:49;100015.47;;;22.12;100.00
3917;BME280;1973;50.518;7.318;2023-09-18T09:01:16;100005.06;;;22.26;100.00
3917;BME280;1973;50.518;7.318;2023-09-18T09:03:43;100009.63;;;22.22;100.00
3917;BME280;1973;50.518;7.318;2023-09-18T09:06:12;100006.75;;;22.27;100.00
3917;BME280;1973;50.518;7.318;2023-09-18T09:08:39;100015.78;;;22.24;100.00
3917;BME280;1973;50.518;7.318;2023-09-18T09:11:06;100024.41;;;22.27;100.00
3917;BME280;1973;50.518;7.318;2023-09-18T09:13:32;100032.72;;;22.19;100.00
3917;BME280;1973;50.518;7.318;2023-09-18T09:16:12;100048.06;;;22.21;100.00
3917;BME280;1973;50.518;7.318;2023-09-18T09:18:50;100049.22;;;22.07;100.00
3917;BME280;1973;50.518;7.318;2023-09-18T09:21:18;100049.53;;;22.05;100.00
3917;BME280;1973;50.518;7.318;2023-09-18T09:23:52;100041.13;;;22.05;100.00
3917;BME280;1973;50.518;7.318;2023-09-18T09:26:21;100026.16;;;22.10;100.00
3917;BME280;1973;50.518;7.318;2023-09-18T09:28:49;100028.78;;;22.20;100.00
3917;BME280;1973;50.518;7.318;2023-09-18T09:31:27;100034.16;;;22.30;100.00
3917;BME280;1973;50.518;7.318;2023-09-18T09:33:54;100017.97;;;22.27;100.00
3917;BME280;1973;50.518;7.318;2023-09-18T09:36:23;100015.16;;;22.27;100.00
3917;BME280;1973;50.518;7.318;2023-09-18T09:38:57;100018.66;;;22.32;100.00
3917;BME280;1973;50.518;7.318;2023-09-18T09:41:27;100025.66;;;22.35;100.00
3917;BME280;1973;50.518;7.318;2023-09-18T09:43:55;100027.91;;;22.33;100.00
3917;BME280;1973;50.518;7.318;2023-09-18T09:46:23;100029.81;;;22.24;100.00
3917;BME280;1973;50.518;7.318;2023-09-18T09:49:03;100037.06;;;22.25;100.00
3917;BME280;1973;50.518;7.318;2023-09-18T09:51:31;100033.84;;;22.18;100.00
3917;BME280;1973;50.518;7.318;2023-09-18T09:53:58;100046.22;;;22.17;100.00
3917;BME280;1973;50.518;7.318;2023-09-18T09:59:11;100061.16;;;22.12;100.00
3917;BME280;1973;50.518;7.318;2023-09-18T10:01:39;100047.78;;;22.23;100.00
3917;BME280;1973;50.518;7.318;2023-09-18T10:04:10;100049.13;;;22.25;100.00
3917;BME280;1973;50.518;7.318;2023-09-18T10:06:42;100050.66;;;22.18;100.00
3917;BME280;1973;50.518;7.318;2023-09-18T10:09:12;100067.72;;;22.35;100.00
3917;BME280;1973;50.518;7.318;2023-09-18T10:11:41;100064.72;;;22.31;100.00
3917;BME280;1973;50.518;7.318;2023-09-18T10:14:19;100058.38;;;22.53;100.00
3917;BME280;1973;50.518;7.318;2023-09-18T10:16:51;100057.75;;;22.84;100.00
3917;BME280;1973;50.518;7.318;2023-09-18T10:24:57;100072.13;;;23.04;100.00
3917;BME280;1973;50.518;7.318;2023-09-18T10:27:27;100067.00;;;23.20;100.00
3917;BME280;1973;50.518;7.318;2023-09-18T10:29:55;100068.13;;;23.19;100.00
3917;BME280;1973;50.518;7.318;2023-09-18T10:32:24;100065.81;;;23.21;100.00
3917;BME280;1973;50.518;7.318;2023-09-18T10:34:52;100072.31;;;23.08;100.00
3917;BME280;1973;50.518;7.318;2023-09-18T10:37:20;100066.47;;;23.18;100.00
3917;BME280;1973;50.518;7.318;2023-09-18T10:39:49;100075.63;;;23.23;100.00
3917;BME280;1973;50.518;7.318;2023-09-18T10:42:16;100047.59;;;23.54;100.00
3917;BME280;1973;50.518;7.318;2023-09-18T10:44:44;100047.56;;;23.68;100.00
3917;BME280;1973;50.518;7.318;2023-09-18T10:47:12;100045.25;;;24.01;100.00
3917;BME280;1973;50.518;7.318;2023-09-18T10:49:41;100043.25;;;24.23;100.00
3917;BME280;1973;50.518;7.318;2023-09-18T10:52:11;100049.31;;;24.56;100.00
3917;BME280;1973;50.518;7.318;2023-09-18T10:54:39;100045.81;;;24.42;100.00
3917;BME280;1973;50.518;7.318;2023-09-18T10:57:06;100044.97;;;24.50;100.00
3917;BME280;1973;50.518;7.318;2023-09-18T10:59:33;100038.91;;;24.17;100.00
3917;BME280;1973;50.518;7.318;2023-09-18T11:02:03;100035.78;;;24.19;100.00
3917;BME280;1973;50.518;7.318;2023-09-18T11:04:33;100040.38;;;24.15;100.00
3917;BME280;1973;50.518;7.318;2023-09-18T11:07:03;100043.59;;;24.00;100.00
3917;BME280;1973;50.518;7.318;2023-09-18T11:09:40;100054.19;;;24.03;100.00
3917;BME280;1973;50.518;7.318;2023-09-18T11:12:09;100048.78;;;23.84;100.00
3917;BME280;1973;50.518;7.318;2023-09-18T11:17:38;100060.63;;;23.72;100.00
3917;BME280;1973;50.518;7.318;2023-09-18T11:20:16;100046.03;;;23.93;100.00
3917;BME280;1973;50.518;7.318;2023-09-18T11:23:15;100033.09;;;24.14;100.00
3917;BME280;1973;50.518;7.318;2023-09-18T11:25:43;100028.69;;;24.30;100.00
3917;BME280;1973;50.518;7.318;2023-09-18T11:28:15;100031.06;;;24.54;100.00
3917;BME280;1973;50.518;7.318;2023-09-18T11:30:53;100019.69;;;24.76;100.00
3917;BME280;1973;50.518;7.318;2023-09-18T11:33:40;100021.22;;;24.91;100.00
3917;BME280;1973;50.518;7.318;2023-09-18T11:36:13;100022.41;;;24.90;100.00
3917;BME280;1973;50.518;7.318;2023-09-18T11:38:55;100025.56;;;24.88;100.00
3917;BME280;1973;50.518;7.318;2023-09-18T11:41:27;100022.19;;;24.78;100.00
3917;BME280;1973;50.518;7.318;2023-09-18T11:46:49;100016.13;;;25.10;100.00
3917;BME280;1973;50.518;7.318;2023-09-18T11:49:24;100009.16;;;24.99;100.00
3917;BME280;1973;50.518;7.318;2023-09-18T11:51:54;100010.97;;;25.03;100.00
3917;BME280;1973;50.518;7.318;2023-09-18T11:54:24;99991.59;;;25.19;100.00
3917;BME280;1973;50.518;7.318;2023-09-18T11:56:51;99981.81;;;25.16;100.00
3917;BME280;1973;50.518;7.318;2023-09-18T11:59:18;99988.75;;;25.02;100.00
3917;BME280;1973;50.518;7.318;2023-09-18T12:01:53;99983.97;;;24.94;100.00
3917;BME280;1973;50.518;7.318;2023-09-18T12:04:27;99982.81;;;24.86;100.00
3917;BME280;1973;50.518;7.318;2023-09-18T12:06:55;99984.25;;;24.66;100.00
3917;BME280;1973;50.518;7.318;2023-09-18T12:09:21;99976.81;;;24.79;100.00
3917;BME280;1973;50.518;7.318;2023-09-18T12:11:48;99978.84;;;25.04;100.00
3917;BME280;1973;50.518;7.318;2023-09-18T12:14:19;99964.25;;;25.19;100.00
3917;BME280;1973;50.518;7.318;2023-09-18T12:16:46;99965.72;;;25.34;100.00
3917;BME280;1973;50.518;7.318;2023-09-18T12:19:17;99963.00;;;25.46;97.64
3917;BME280;1973;50.518;7.318;2023-09-18T12:21:47;99966.84;;;25.67;87.05
3917;BME280;1973;50.518;7.318;2023-09-18T12:24:21;99989.69;;;25.75;77.12
3917;BME280;1973;50.518;7.318;2023-09-18T12:26:48;99976.34;;;25.92;78.88
3917;BME280;1973;50.518;7.318;2023-09-18T12:29:15;99988.78;;;26.00;75.28
3917;BME280;1973;50.518;7.318;2023-09-18T12:31:42;99978.16;;;25.97;69.14
3917;BME280;1973;50.518;7.318;2023-09-18T12:34:18;99978.78;;;26.11;60.51
3917;BME280;1973;50.518;7.318;2023-09-18T12:36:48;99990.97;;;26.32;64.36
3917;BME280;1973;50.518;7.318;2023-09-18T12:39:14;99956.94;;;26.29;62.26
3917;BME280;1973;50.518;7.318;2023-09-18T12:41:46;99949.41;;;26.62;60.83
3917;BME280;1973;50.518;7.318;2023-09-18T12:44:13;99973.81;;;26.67;59.88
3917;BME280;1973;50.518;7.318;2023-09-18T12:46:43;99959.59;;;26.84;58.44
3917;BME280;1973;50.518;7.318;2023-09-18T12:49:20;99949.84;;;27.14;56.42
3917;BME280;1973;50.518;7.318;2023-09-18T12:52:00;99954.44;;;26.86;53.77
3917;BME280;1973;50.518;7.318;2023-09-18T12:54:44;99944.69;;;27.16;54.25
3917;BME280;1973;50.518;7.318;2023-09-18T12:57:20;99959.88;;;27.44;56.05
3917;BME280;1973;50.518;7.318;2023-09-18T12:59:47;99955.94;;;27.70;53.61
3917;BME280;1973;50.518;7.318;2023-09-18T13:02:18;99939.97;;;27.86;52.42
3917;BME280;1973;50.518;7.318;2023-09-18T13:04:55;99938.06;;;28.38;49.49
3917;BME280;1973;50.518;7.318;2023-09-18T13:07:23;99937.41;;;28.41;51.21
3917;BME280;1973;50.518;7.318;2023-09-18T13:10:05;99966.13;;;27.95;48.96
3917;BME280;1973;50.518;7.318;2023-09-18T13:12:50;99931.84;;;28.21;49.06
3917;BME280;1973;50.518;7.318;2023-09-18T13:15:31;99925.59;;;28.27;48.54
3917;BME280;1973;50.518;7.318;2023-09-18T13:18:00;99919.81;;;28.24;49.63
3917;BME280;1973;50.518;7.318;2023-09-18T13:20:28;99924.19;;;28.09;48.94
3917;BME280;1973;50.518;7.318;2023-09-18T13:22:58;99919.06;;;27.90;49.45
3917;BME280;1973;50.518;7.318;2023-09-18T13:25:30;99922.06;;;28.18;48.16
3917;BME280;1973;50.518;7.318;2023-09-18T13:28:02;99917.81;;;28.24;48.84
3917;BME280;1973;50.518;7.318;2023-09-18T13:30:30;99916.63;;;28.25;48.41
3917;BME280;1973;50.518;7.318;2023-09-18T13:33:09;99913.50;;;28.54;46.84
3917;BME280;1973;50.518;7.318;2023-09-18T13:35:37;99928.84;;;28.53;46.89
3917;BME280;1973;50.518;7.318;2023-09-18T13:38:06;99927.50;;;28.11;47.58